createdAt,value
2019-02-12T00:01:04.483Z,93922.34
2019-02-12T00:03:34.955Z,93918.45
2019-02-12T00:06:05.645Z,93926.83
2019-02-12T00:08:35.986Z,93932.94
2019-02-12T00:11:06.260Z,93940.91
2019-02-12T00:13:37.098Z,93955.03
2019-02-12T00:16:08.332Z,93982.45
2019-02-12T00:19:14.589Z,93963.34
2019-02-12T00:21:44.970Z,93962.81
2019-02-12T00:24:15.588Z,93971.41
2019-02-12T00:26:45.885Z,93961.28
2019-02-12T00:29:16.615Z,93975.06
2019-02-12T00:31:47.188Z,93967.20
2019-02-12T00:34:17.793Z,93960.63
2019-02-12T00:36:48.456Z,93957.66
2019-02-12T00:39:18.790Z,93960.50
2019-02-12T00:41:49.420Z,93963.14
2019-02-12T00:44:19.952Z,93960.61
2019-02-12T00:46:50.214Z,93970.38
2019-02-12T00:49:21.863Z,93986.68
2019-02-12T00:51:52.417Z,93972.42
2019-02-12T00:54:24.142Z,93956.08
2019-02-12T00:56:56.187Z,93959.70
2019-02-12T00:59:26.598Z,93942.61
2019-02-12T01:01:56.842Z,93935.09
2019-02-12T01:04:27.442Z,93948.34
2019-02-12T01:06:58.196Z,93970.94
2019-02-12T01:09:28.689Z,93959.80
2019-02-12T01:11:58.970Z,93957.27
2019-02-12T01:14:29.608Z,93967.20
2019-02-12T01:16:59.968Z,93936.63
2019-02-12T01:19:30.512Z,93919.40
2019-02-12T01:22:01.062Z,93915.03
2019-02-12T01:24:32.472Z,93916.70
2019-02-12T01:27:02.745Z,93913.79
2019-02-12T01:29:33.585Z,93900.19
2019-02-12T01:32:03.969Z,93890.16
2019-02-12T01:34:34.498Z,93891.11
2019-02-12T01:37:05.166Z,93903.00
2019-02-12T01:39:35.844Z,93913.89
2019-02-12T01:42:06.113Z,93954.23
2019-02-12T01:44:36.660Z,93957.23
2019-02-12T01:47:07.016Z,93950.13
2019-02-12T01:49:37.796Z,93948.55
2019-02-12T01:52:08.541Z,93955.26
2019-02-12T01:54:39.053Z,93962.63
2019-02-12T01:57:09.720Z,93973.19
2019-02-12T01:59:40.384Z,93965.69
2019-02-12T02:02:10.625Z,93959.75
2019-02-12T02:04:41.036Z,93970.34
2019-02-12T02:07:11.641Z,93985.91
2019-02-12T02:09:42.152Z,93958.13
2019-02-12T02:12:12.421Z,93968.62
2019-02-12T02:14:42.919Z,93962.23
2019-02-12T02:17:13.550Z,93969.95
2019-02-12T02:19:44.221Z,93954.17
2019-02-12T02:22:14.604Z,93939.99
2019-02-12T02:24:45.221Z,93964.53
2019-02-12T02:27:15.561Z,93964.70
2019-02-12T02:29:46.033Z,93955.72
2019-02-12T02:32:16.394Z,93959.38
2019-02-12T02:34:47.181Z,93954.89
2019-02-12T02:37:17.434Z,93947.32
2019-02-12T02:39:47.982Z,93971.86
2019-02-12T02:42:18.741Z,93962.55
2019-02-12T02:44:49.201Z,93955.25
2019-02-12T02:47:19.807Z,93955.27
2019-02-12T02:49:50.444Z,93949.61
2019-02-12T02:52:20.743Z,93950.77
2019-02-12T02:54:52.438Z,93967.97
2019-02-12T02:57:22.676Z,93956.05
2019-02-12T02:59:53.187Z,93949.11
2019-02-12T03:02:23.814Z,93949.55
2019-02-12T03:04:54.360Z,93944.53
2019-02-12T03:07:24.601Z,93949.55
2019-02-12T03:09:55.231Z,93959.84
2019-02-12T03:12:25.816Z,93957.67
2019-02-12T03:14:56.220Z,93962.98
2019-02-12T03:17:26.891Z,93966.36
2019-02-12T03:19:57.197Z,93964.07
2019-02-12T03:22:27.833Z,93965.27
2019-02-12T03:24:58.173Z,93985.17
2019-02-12T03:27:28.517Z,93975.44
2019-02-12T03:29:59.002Z,93982.17
2019-02-12T03:32:29.693Z,93988.97
2019-02-12T03:35:00.326Z,93985.21
2019-02-12T03:37:30.905Z,93978.02
2019-02-12T03:40:01.477Z,93984.84
2019-02-12T03:42:31.777Z,93992.02
2019-02-12T03:45:02.320Z,93978.89
2019-02-12T03:47:33.953Z,93981.51
2019-02-12T03:50:04.357Z,93983.09
2019-02-12T03:52:34.889Z,93986.36
2019-02-12T03:55:06.255Z,93997.53
2019-02-12T03:57:36.612Z,93987.45
2019-02-12T04:00:08.660Z,93984.80
2019-02-12T04:02:40.519Z,93987.86
2019-02-12T04:05:10.956Z,93987.65
2019-02-12T04:07:41.746Z,93986.55
2019-02-12T04:10:12.012Z,93982.39
2019-02-12T04:12:42.604Z,93982.44
2019-02-12T04:15:13.361Z,93980.69
2019-02-12T04:17:43.743Z,93971.37
2019-02-12T04:20:14.060Z,93978.30
2019-02-12T04:22:44.568Z,93980.36
2019-02-12T04:25:14.866Z,93981.55
2019-02-12T04:27:45.237Z,93994.23
2019-02-12T04:30:15.603Z,93997.77
2019-02-12T04:32:45.875Z,93989.53
2019-02-12T04:35:16.379Z,94007.44
2019-02-12T04:37:46.690Z,94041.05
2019-02-12T04:40:16.948Z,94009.95
2019-02-12T04:42:47.739Z,94026.44
2019-02-12T04:45:18.278Z,94031.95
2019-02-12T04:47:48.583Z,94026.90
2019-02-12T04:50:18.943Z,94021.28
2019-02-12T04:52:49.310Z,94034.43
2019-02-12T04:55:20.580Z,94015.86
2019-02-12T04:57:51.028Z,94022.50
2019-02-12T05:00:22.314Z,94035.70
2019-02-12T05:02:52.967Z,94034.13
2019-02-12T05:05:23.401Z,94055.42
2019-02-12T05:07:53.967Z,94058.84
2019-02-12T05:10:25.095Z,94065.83
2019-02-12T05:12:55.833Z,94064.23
2019-02-12T05:15:26.312Z,94067.03
2019-02-12T05:17:56.992Z,94058.19
2019-02-12T05:20:27.760Z,94058.09
2019-02-12T05:22:58.277Z,94062.84
2019-02-12T05:25:28.639Z,94067.16
2019-02-12T05:27:59.154Z,94071.13
2019-02-12T05:30:29.516Z,94054.41
2019-02-12T05:32:59.776Z,94082.09
2019-02-12T05:35:30.637Z,94066.36
2019-02-12T05:38:00.906Z,94088.23
2019-02-12T05:40:31.306Z,94087.28
2019-02-12T05:43:01.913Z,94091.34
2019-02-12T05:45:32.423Z,94091.70
2019-02-12T05:48:02.693Z,94104.83
2019-02-12T05:50:33.083Z,94101.41
2019-02-12T05:53:03.510Z,94125.73
2019-02-12T05:55:33.788Z,94108.78
2019-02-12T05:58:04.596Z,94134.38
2019-02-12T06:00:34.966Z,94124.98
2019-02-12T06:03:05.752Z,94118.92
2019-02-12T06:05:36.283Z,94132.86
2019-02-12T06:08:06.743Z,94129.48
2019-02-12T06:10:38.485Z,94125.92
2019-02-12T06:13:09.181Z,94131.08
2019-02-12T06:15:39.566Z,94126.03
2019-02-12T06:18:10.186Z,94133.48
2019-02-12T06:20:40.724Z,94165.95
2019-02-12T06:23:11.029Z,94148.92
2019-02-12T06:25:41.394Z,94162.28
2019-02-12T06:28:12.003Z,94161.86
2019-02-12T06:30:43.901Z,94172.08
2019-02-12T06:33:14.874Z,94162.58
2019-02-12T06:35:45.201Z,94177.91
2019-02-12T06:38:15.936Z,94168.22
2019-02-12T06:40:46.766Z,94176.24
2019-02-12T06:43:17.037Z,94182.45
2019-02-12T06:45:47.435Z,94177.03
2019-02-12T06:48:18.068Z,94172.45
2019-02-12T06:50:48.380Z,94222.56
2019-02-12T06:53:18.672Z,94184.89
2019-02-12T06:55:49.527Z,94184.52
2019-02-12T06:58:19.792Z,94193.22
2019-02-12T07:00:50.367Z,93889.20
2019-02-12T07:03:23.268Z,94202.31
2019-02-12T07:06:03.510Z,94219.23
2019-02-12T07:09:05.555Z,94171.61
2019-02-12T07:12:12.389Z,94197.44
2019-02-12T07:15:05.763Z,94193.13
2019-02-12T07:17:49.851Z,94204.91
2019-02-12T07:20:55.465Z,94220.72
2019-02-12T07:24:11.931Z,94210.16
2019-02-12T07:27:28.205Z,94213.80
2019-02-12T07:30:20.404Z,94226.72
2019-02-12T07:33:19.588Z,94214.70
2019-02-12T07:36:26.418Z,94251.14
2019-02-12T07:39:25.478Z,94235.72
2019-02-12T07:42:54.693Z,94262.47
2019-02-12T07:46:11.777Z,94265.52
2019-02-12T07:49:22.343Z,94255.16
2019-02-12T07:52:29.741Z,94256.20
2019-02-12T07:55:27.347Z,94291.46
2019-02-12T07:58:33.383Z,94285.99
2019-02-12T08:01:50.932Z,94309.36
2019-02-12T08:04:51.850Z,94294.81
2019-02-12T08:07:56.161Z,94302.97
2019-02-12T08:10:49.722Z,94311.20
2019-02-12T08:14:08.104Z,94315.81
2019-02-12T08:17:25.231Z,94303.21
2019-02-12T08:20:43.684Z,94324.20
2019-02-12T08:23:54.415Z,94313.59
2019-02-12T08:26:38.239Z,94330.54
2019-02-12T08:29:48.568Z,94303.72
2019-02-12T08:32:30.508Z,94316.17
2019-02-12T08:35:34.079Z,94333.38
2019-02-12T08:38:24.208Z,94314.03
2019-02-12T08:41:26.826Z,94336.25
2019-02-12T08:44:35.686Z,94330.41
2019-02-12T08:47:52.984Z,94336.74
2019-02-12T08:51:02.169Z,94313.70
2019-02-12T08:54:04.076Z,94324.07
2019-02-12T08:56:49.744Z,94321.44
2019-02-12T08:59:48.974Z,94333.64
2019-02-12T09:02:47.630Z,94325.20
2019-02-12T09:05:43.294Z,94326.87
2019-02-12T09:09:00.665Z,94352.25
2019-02-12T09:12:11.377Z,94311.03
2019-02-12T09:15:11.285Z,94336.83
2019-02-12T09:18:06.637Z,94352.38
2019-02-12T09:21:24.067Z,94353.66
2019-02-12T09:24:44.574Z,94339.75
2019-02-12T09:28:05.470Z,94351.50
2019-02-12T09:30:57.770Z,94344.73
2019-02-12T09:33:54.434Z,94350.16
2019-02-12T09:36:54.834Z,94379.50
2019-02-12T09:39:58.173Z,94359.39
2019-02-12T09:43:08.507Z,94337.19
2019-02-12T09:46:18.733Z,94373.80
2019-02-12T09:49:25.114Z,94343.07
2019-02-12T09:52:26.332Z,94386.75
2019-02-12T09:55:30.787Z,94374.78
2019-02-12T09:58:41.812Z,94376.16
2019-02-12T10:01:21.854Z,94318.56
2019-02-12T10:04:14.072Z,94362.09
2019-02-12T10:07:02.390Z,94360.31
2019-02-12T10:10:12.781Z,94397.22
2019-02-12T10:13:13.431Z,94376.59
2019-02-12T10:16:29.853Z,94378.71
2019-02-12T10:19:24.041Z,94373.20
2019-02-12T10:22:32.075Z,94398.77
2019-02-12T10:25:25.424Z,94411.04
2019-02-12T10:28:38.522Z,94441.55
2019-02-12T10:31:19.272Z,94424.72
2019-02-12T10:33:49.938Z,94425.50
2019-02-12T10:36:20.230Z,94395.28
2019-02-12T10:38:50.720Z,94459.91
2019-02-12T10:41:21.340Z,94414.98
2019-02-12T10:43:51.651Z,94414.80
2019-02-12T10:46:21.937Z,94433.95
2019-02-12T10:48:52.878Z,94417.97
2019-02-12T10:51:23.313Z,94431.76
2019-02-12T10:53:53.836Z,94423.42
2019-02-12T10:56:24.116Z,94432.91
2019-02-12T10:58:54.625Z,94442.88
2019-02-12T11:01:25.291Z,94461.72
2019-02-12T11:03:56.645Z,94436.81
2019-02-12T11:06:26.934Z,94488.39
2019-02-12T11:08:57.771Z,94456.45
2019-02-12T11:11:28.317Z,94457.44
2019-02-12T11:13:58.660Z,94479.46
2019-02-12T11:16:29.403Z,94461.90
2019-02-12T11:18:59.923Z,94462.20
2019-02-12T11:21:30.304Z,94472.59
2019-02-12T11:24:01.058Z,94473.38
2019-02-12T11:26:31.341Z,94477.94
2019-02-12T11:29:02.078Z,94447.92
2019-02-12T11:31:32.523Z,94476.88
2019-02-12T11:34:03.065Z,94461.30
2019-02-12T11:36:33.735Z,94479.84
2019-02-12T11:39:04.997Z,94477.58
2019-02-12T11:41:36.144Z,94471.51
2019-02-12T11:44:07.129Z,94485.76
2019-02-12T11:46:37.593Z,94477.95
2019-02-12T11:49:08.108Z,94512.64
2019-02-12T11:51:38.457Z,94475.56
2019-02-12T11:54:09.016Z,94447.92
2019-02-12T11:56:39.285Z,94467.56
2019-02-12T11:59:10.001Z,94480.62
2019-02-12T12:01:40.519Z,94493.60
2019-02-12T12:04:11.262Z,94493.11
2019-02-12T12:06:41.848Z,94500.44
2019-02-12T12:09:12.428Z,94480.11
2019-02-12T12:11:42.983Z,94487.20
2019-02-12T12:14:13.711Z,94501.00
2019-02-12T12:16:43.988Z,94516.94
2019-02-12T12:19:14.543Z,94525.53
2019-02-12T12:21:45.577Z,94506.91
2019-02-12T12:24:15.871Z,94539.80
2019-02-12T12:26:46.135Z,94554.84
2019-02-12T12:29:16.815Z,94490.53
2019-02-12T12:31:47.344Z,94526.80
2019-02-12T12:34:18.279Z,94529.71
2019-02-12T12:36:48.561Z,94508.53
2019-02-12T12:39:19.073Z,94524.86
2019-02-12T12:41:49.828Z,94539.18
2019-02-12T12:44:20.306Z,94553.09
2019-02-12T12:46:50.576Z,94543.59
2019-02-12T12:49:21.387Z,94571.16
2019-02-12T12:51:51.719Z,94573.59
2019-02-12T12:54:22.095Z,94518.70
2019-02-12T12:56:52.732Z,94576.88
2019-02-12T12:59:23.451Z,94563.28
2019-02-12T13:01:53.806Z,94588.59
2019-02-12T13:04:24.401Z,94577.64
2019-02-12T13:06:54.664Z,94568.73
2019-02-12T13:09:25.547Z,94610.86
2019-02-12T13:11:55.823Z,94577.58
2019-02-12T13:14:26.154Z,94612.24
2019-02-12T13:16:56.523Z,94592.39
2019-02-12T13:19:27.358Z,94604.27
2019-02-12T13:21:57.622Z,94661.92
2019-02-12T13:24:28.257Z,94625.42
2019-02-12T13:26:58.783Z,94618.09
2019-02-12T13:29:30.722Z,94614.41
2019-02-12T13:32:01.087Z,94623.73
2019-02-12T13:34:31.408Z,94618.36
2019-02-12T13:37:03.173Z,94616.72
2019-02-12T13:39:34.859Z,94636.65
2019-02-12T13:42:05.133Z,94637.36
2019-02-12T13:44:35.523Z,94651.50
2019-02-12T13:47:06.304Z,94652.25
2019-02-12T13:49:36.809Z,94659.27
2019-02-12T13:52:07.276Z,94651.67
2019-02-12T13:54:37.984Z,94671.11
2019-02-12T13:57:08.241Z,94663.98
2019-02-12T13:59:38.572Z,94642.66
2019-02-12T14:02:09.277Z,94658.50
2019-02-12T14:04:39.575Z,94671.01
2019-02-12T14:07:10.219Z,94666.63
2019-02-12T14:09:40.599Z,94665.55
2019-02-12T14:12:11.924Z,94666.97
2019-02-12T14:14:42.446Z,94676.26
2019-02-12T14:17:12.733Z,94675.20
2019-02-12T14:19:43.068Z,94685.42
2019-02-12T14:22:13.615Z,94688.97
2019-02-12T14:24:43.937Z,94690.34
2019-02-12T14:27:14.221Z,94704.57
2019-02-12T14:29:44.610Z,94716.25
2019-02-12T14:32:15.067Z,94709.86
2019-02-12T14:34:45.634Z,94700.80
2019-02-12T14:37:16.341Z,94712.27
2019-02-12T14:39:46.876Z,94715.69
2019-02-12T14:42:17.125Z,94738.09
2019-02-12T14:44:47.680Z,94721.23
2019-02-12T14:47:18.310Z,94727.39
2019-02-12T14:49:48.899Z,94710.66
2019-02-12T14:52:19.372Z,94738.66
2019-02-12T14:54:49.827Z,94742.92
2019-02-12T14:57:20.153Z,94744.70
2019-02-12T14:59:50.428Z,94749.30
2019-02-12T15:02:21.205Z,94759.86
2019-02-12T15:04:51.575Z,94749.84
2019-02-12T15:07:21.873Z,94758.76
2019-02-12T15:09:52.759Z,94739.55
2019-02-12T15:12:23.322Z,94755.63
2019-02-12T15:14:53.983Z,94765.61
2019-02-12T15:17:24.255Z,94771.23
2019-02-12T15:19:54.751Z,94756.69
2019-02-12T15:22:25.429Z,94766.56
2019-02-12T15:24:55.714Z,94789.36
2019-02-12T15:27:25.969Z,94773.30
2019-02-12T15:29:56.530Z,94787.14
2019-02-12T15:32:26.968Z,94778.39
2019-02-12T15:34:57.302Z,94782.75
2019-02-12T15:37:28.041Z,94809.05
2019-02-12T15:39:58.424Z,94805.77
2019-02-12T15:42:28.853Z,94801.91
2019-02-12T15:44:59.488Z,94789.02
2019-02-12T15:47:29.777Z,94798.02
2019-02-12T15:50:00.361Z,94792.04
2019-02-12T15:52:30.889Z,94813.70
2019-02-12T15:55:01.349Z,94811.53
2019-02-12T15:57:32.107Z,94814.70
2019-02-12T16:00:03.035Z,94792.56
2019-02-12T16:02:34.451Z,94820.22
2019-02-12T16:05:08.418Z,94825.22
2019-02-12T16:07:38.847Z,94849.19
2019-02-12T16:10:11.766Z,94848.20
2019-02-12T16:12:42.065Z,94863.27
2019-02-12T16:15:14.440Z,94867.53
2019-02-12T16:17:45.118Z,94863.05
2019-02-12T16:20:15.920Z,94879.20
2019-02-12T16:22:46.191Z,94881.98
2019-02-12T16:25:16.902Z,94894.09
2019-02-12T16:27:47.384Z,94893.56
2019-02-12T16:30:17.791Z,94880.88
2019-02-12T16:32:48.243Z,94892.61
2019-02-12T16:35:19.257Z,94899.88
2019-02-12T16:37:49.514Z,94898.84
2019-02-12T16:40:19.897Z,94907.26
2019-02-12T16:42:51.593Z,94907.31
2019-02-12T16:45:26.221Z,94912.85
2019-02-12T16:47:56.719Z,94923.88
2019-02-12T16:50:27.034Z,94931.91
2019-02-12T16:52:59.018Z,94939.09
2019-02-12T16:55:29.816Z,94938.22
2019-02-12T16:58:00.081Z,94934.55
2019-02-12T17:00:30.384Z,94943.65
2019-02-12T17:03:01.058Z,94953.72
2019-02-12T17:05:32.488Z,94958.86
2019-02-12T17:08:02.748Z,94976.63
2019-02-12T17:10:33.141Z,94965.66
2019-02-12T17:13:03.677Z,94971.29
2019-02-12T17:15:34.060Z,94967.97
2019-02-12T17:18:05.769Z,94967.01
2019-02-12T17:20:36.492Z,94970.05
2019-02-12T17:23:07.094Z,94988.20
2019-02-12T17:25:37.520Z,94991.81
2019-02-12T17:28:07.780Z,94967.43
2019-02-12T17:30:38.426Z,94983.77
2019-02-12T17:33:08.735Z,94999.13
2019-02-12T17:35:39.198Z,94997.31
2019-02-12T17:38:09.816Z,94998.09
2019-02-12T17:40:41.251Z,94996.68
2019-02-12T17:43:11.658Z,94994.42
2019-02-12T17:45:42.481Z,95002.34
2019-02-12T17:48:13.066Z,94996.13
2019-02-12T17:50:43.528Z,94998.91
2019-02-12T17:53:14.128Z,95012.55
2019-02-12T17:55:44.428Z,94993.16
2019-02-12T17:58:15.104Z,94985.77
2019-02-12T18:00:46.348Z,95002.16
2019-02-12T18:03:16.604Z,95006.81
2019-02-12T18:05:47.311Z,95000.83
2019-02-12T18:08:19.281Z,95003.35
2019-02-12T18:10:49.731Z,95018.17
2019-02-12T18:13:20.098Z,95022.91
2019-02-12T18:15:50.829Z,95019.22
2019-02-12T18:18:21.091Z,95019.98
2019-02-12T18:20:51.495Z,95018.44
2019-02-12T18:23:21.979Z,95016.85
2019-02-12T18:25:52.607Z,95028.84
2019-02-12T18:28:23.410Z,95027.69
2019-02-12T18:30:53.685Z,95030.48
2019-02-12T18:33:24.166Z,95024.29
2019-02-12T18:35:54.508Z,95044.84
2019-02-12T18:38:24.941Z,95027.47
2019-02-12T18:40:55.242Z,95043.77
2019-02-12T18:43:25.930Z,95037.64
2019-02-12T18:45:56.235Z,95069.92
2019-02-12T18:48:26.556Z,95043.33
2019-02-12T18:50:57.350Z,95051.58
2019-02-12T18:53:29.008Z,95043.01
2019-02-12T18:55:59.369Z,95055.53
2019-02-12T18:58:30.010Z,95040.59
2019-02-12T19:01:01.577Z,95061.39
2019-02-12T19:03:31.837Z,95075.33
2019-02-12T19:06:02.672Z,95088.38
2019-02-12T19:08:33.033Z,95053.61
2019-02-12T19:11:03.405Z,95087.85
2019-02-12T19:13:33.676Z,95098.97
2019-02-12T19:16:04.488Z,95112.44
2019-02-12T19:18:34.747Z,95087.39
2019-02-12T19:21:05.340Z,95095.72
2019-02-12T19:23:35.860Z,95087.39
2019-02-12T19:26:06.184Z,95087.88
2019-02-12T19:28:36.699Z,95104.34
2019-02-12T19:31:07.207Z,95107.38
2019-02-12T19:33:37.545Z,95103.71
2019-02-12T19:36:08.171Z,95112.52
2019-02-12T19:38:38.419Z,95102.62
2019-02-12T19:41:08.718Z,95102.83
2019-02-12T19:43:39.346Z,95139.30
2019-02-12T19:46:09.717Z,95118.57
2019-02-12T19:48:39.971Z,95114.30
2019-02-12T19:51:10.675Z,95116.83
2019-02-12T19:53:41.113Z,95123.37
2019-02-12T19:56:11.573Z,95135.17
2019-02-12T19:58:42.235Z,95125.12
2019-02-12T20:01:12.568Z,95138.75
2019-02-12T20:03:43.141Z,95134.58
2019-02-12T20:06:13.431Z,95143.28
2019-02-12T20:08:43.672Z,95144.30
2019-02-12T20:11:14.422Z,95144.28
2019-02-12T20:13:44.976Z,95145.39
2019-02-12T20:16:15.286Z,95140.40
2019-02-12T20:18:45.959Z,95146.03
2019-02-12T20:21:16.622Z,95156.73
2019-02-12T20:23:46.888Z,95152.92
2019-02-12T20:26:17.731Z,95152.17
2019-02-12T20:28:48.474Z,95163.54
2019-02-12T20:31:18.993Z,95171.22
2019-02-12T20:33:56.793Z,95171.70
2019-02-12T20:36:21.554Z,95162.84
2019-02-12T20:38:51.991Z,95164.95
2019-02-12T20:41:23.791Z,95169.61
2019-02-12T20:43:54.062Z,95173.00
2019-02-12T20:46:25.731Z,95171.89
2019-02-12T20:48:56.421Z,95189.69
2019-02-12T20:51:26.911Z,95186.94
2019-02-12T20:53:57.331Z,95178.73
2019-02-12T20:56:28.037Z,95175.74
2019-02-12T20:58:58.318Z,95170.59
2019-02-12T21:01:28.625Z,95182.31
2019-02-12T21:03:59.293Z,95163.67
2019-02-12T21:06:30.823Z,95168.52
2019-02-12T21:09:01.164Z,95178.77
2019-02-12T21:11:32.863Z,95180.55
2019-02-12T21:14:03.405Z,95184.88
2019-02-12T21:16:33.808Z,95195.28
2019-02-12T21:19:04.589Z,95186.02
2019-02-12T21:21:35.418Z,95194.86
2019-02-12T21:24:05.672Z,95199.29
2019-02-12T21:26:36.351Z,95198.87
2019-02-12T21:29:06.855Z,95205.92
2019-02-12T21:31:37.154Z,95203.16
2019-02-12T21:34:07.592Z,95208.00
2019-02-12T21:36:37.882Z,95199.34
2019-02-12T21:39:10.526Z,95207.52
2019-02-12T21:41:41.153Z,95198.50
2019-02-12T21:44:11.429Z,95197.09
2019-02-12T21:46:43.285Z,95214.87
2019-02-12T21:49:13.940Z,95213.47
2019-02-12T21:51:44.304Z,95236.25
2019-02-12T21:54:14.688Z,95214.59
2019-02-12T21:56:45.381Z,95234.95
2019-02-12T21:59:15.697Z,95257.73
2019-02-12T22:01:46.062Z,95238.34
2019-02-12T22:04:16.723Z,95245.05
2019-02-12T22:06:47.046Z,95242.97
2019-02-12T22:09:17.675Z,95250.83
2019-02-12T22:11:48.271Z,95247.48
2019-02-12T22:14:18.680Z,95246.67
2019-02-12T22:16:49.294Z,95252.45
2019-02-12T22:19:19.547Z,95258.52
2019-02-12T22:21:50.080Z,95238.16
2019-02-12T22:24:20.746Z,95253.70
2019-02-12T22:26:51.166Z,95250.37
2019-02-12T22:29:21.435Z,95246.83
2019-02-12T22:31:51.916Z,95255.15
2019-02-12T22:34:22.212Z,95251.30
2019-02-12T22:36:52.853Z,95245.84
2019-02-12T22:39:23.526Z,95241.69
2019-02-12T22:41:54.013Z,95247.78
2019-02-12T22:44:24.682Z,95254.83
2019-02-12T22:46:55.273Z,95258.52
2019-02-12T22:49:25.556Z,95255.62
2019-02-12T22:51:56.089Z,95261.57
2019-02-12T22:54:28.368Z,95264.29
2019-02-12T22:56:58.775Z,95259.48
2019-02-12T22:59:31.496Z,95256.09
2019-02-12T23:02:01.889Z,95270.52
2019-02-12T23:04:32.127Z,95275.67
2019-02-12T23:07:02.847Z,95274.23
2019-02-12T23:09:33.569Z,95279.22
2019-02-12T23:12:03.978Z,95272.31
2019-02-12T23:14:34.324Z,95298.77
2019-02-12T23:17:04.880Z,95295.11
2019-02-12T23:19:35.174Z,95288.83
2019-02-12T23:22:05.565Z,95282.87
2019-02-12T23:24:36.228Z,95292.67
2019-02-12T23:27:06.572Z,95292.83
2019-02-12T23:29:36.856Z,95301.30
2019-02-12T23:32:07.796Z,95302.73
2019-02-12T23:34:38.304Z,95289.44
2019-02-12T23:37:09.179Z,95301.19
2019-02-12T23:39:39.922Z,95295.88
2019-02-12T23:42:10.683Z,95308.05
2019-02-12T23:44:41.087Z,95323.43
2019-02-12T23:47:11.403Z,95323.39
2019-02-12T23:49:41.674Z,95325.44
2019-02-12T23:52:12.206Z,95318.69
2019-02-12T23:54:42.645Z,95314.05
2019-02-12T23:57:12.950Z,95333.55
2019-02-12T23:59:43.667Z,95325.84
